sensor_id;sensor_type;location;lat;lon;timestamp;P1;durP1;ratioP1;P2;durP2;ratioP2
21711;SDS011;11017;53.552;9.910;2022-09-09T00:00:59;1.45;;;1.35;;
21711;SDS011;11017;53.552;9.910;2022-09-09T00:03:27;3.72;;;3.35;;
21711;SDS011;11017;53.552;9.910;2022-09-09T00:05:59;5.93;;;2.67;;
21711;SDS011;11017;53.552;9.910;2022-09-09T00:08:32;5.20;;;2.72;;
21711;SDS011;11017;53.552;9.910;2022-09-09T00:11:04;2.25;;;2.10;;
21711;SDS011;11017;53.552;9.910;2022-09-09T00:13:33;5.20;;;2.67;;
21711;SDS011;11017;53.552;9.910;2022-09-09T00:16:03;4.35;;;2.50;;
21711;SDS011;11017;53.552;9.910;2022-09-09T00:18:32;5.80;;;2.88;;
21711;SDS011;11017;53.552;9.910;2022-09-09T00:21:05;2.20;;;1.88;;
21711;SDS011;11017;53.552;9.910;2022-09-09T00:23:34;3.22;;;2.20;;
21711;SDS011;11017;53.552;9.910;2022-09-09T00:26:04;4.70;;;2.05;;
21711;SDS011;11017;53.552;9.910;2022-09-09T00:28:42;2.40;;;2.20;;
21711;SDS011;11017;53.552;9.910;2022-09-09T00:31:12;26.98;;;2.83;;
21711;SDS011;11017;53.552;9.910;2022-09-09T00:33:40;5.57;;;2.75;;
21711;SDS011;11017;53.552;9.910;2022-09-09T00:36:09;3.40;;;2.25;;
21711;SDS011;11017;53.552;9.910;2022-09-09T00:38:40;2.80;;;2.53;;
21711;SDS011;11017;53.552;9.910;2022-09-09T00:41:11;2.30;;;1.80;;
21711;SDS011;11017;53.552;9.910;2022-09-09T00:43:40;4.57;;;2.58;;
21711;SDS011;11017;53.552;9.910;2022-09-09T00:46:14;27.85;;;3.42;;
21711;SDS011;11017;53.552;9.910;2022-09-09T00:48:50;3.63;;;2.65;;
21711;SDS011;11017;53.552;9.910;2022-09-09T00:51:22;2.78;;;2.42;;
21711;SDS011;11017;53.552;9.910;2022-09-09T00:54:02;4.53;;;3.00;;
21711;SDS011;11017;53.552;9.910;2022-09-09T00:56:34;8.38;;;2.45;;
21711;SDS011;11017;53.552;9.910;2022-09-09T00:59:11;3.25;;;1.98;;
21711;SDS011;11017;53.552;9.910;2022-09-09T01:01:43;4.65;;;2.55;;
21711;SDS011;11017;53.552;9.910;2022-09-09T01:04:11;2.58;;;2.03;;
21711;SDS011;11017;53.552;9.910;2022-09-09T01:06:41;6.43;;;1.70;;
21711;SDS011;11017;53.552;9.910;2022-09-09T01:09:10;3.33;;;2.25;;
21711;SDS011;11017;53.552;9.910;2022-09-09T01:11:43;3.67;;;2.05;;
21711;SDS011;11017;53.552;9.910;2022-09-09T01:14:16;3.28;;;2.30;;
21711;SDS011;11017;53.552;9.910;2022-09-09T01:16:46;7.00;;;2.97;;
21711;SDS011;11017;53.552;9.910;2022-09-09T01:19:15;3.03;;;2.83;;
21711;SDS011;11017;53.552;9.910;2022-09-09T01:21:47;3.15;;;2.85;;
21711;SDS011;11017;53.552;9.910;2022-09-09T01:24:19;3.67;;;2.58;;
21711;SDS011;11017;53.552;9.910;2022-09-09T01:26:50;2.90;;;2.55;;
21711;SDS011;11017;53.552;9.910;2022-09-09T01:29:20;4.63;;;2.03;;
21711;SDS011;11017;53.552;9.910;2022-09-09T01:31:52;4.15;;;2.83;;
21711;SDS011;11017;53.552;9.910;2022-09-09T01:34:19;5.50;;;2.50;;
21711;SDS011;11017;53.552;9.910;2022-09-09T01:36:47;2.15;;;1.58;;
21711;SDS011;11017;53.552;9.910;2022-09-09T01:39:16;2.58;;;2.38;;
21711;SDS011;11017;53.552;9.910;2022-09-09T01:41:44;3.75;;;3.08;;
21711;SDS011;11017;53.552;9.910;2022-09-09T01:44:12;3.45;;;2.58;;
21711;SDS011;11017;53.552;9.910;2022-09-09T01:46:39;8.57;;;2.92;;
21711;SDS011;11017;53.552;9.910;2022-09-09T01:49:06;12.10;;;3.70;;
21711;SDS011;11017;53.552;9.910;2022-09-09T01:51:34;2.42;;;2.22;;
21711;SDS011;11017;53.552;9.910;2022-09-09T01:54:01;14.05;;;2.63;;
21711;SDS011;11017;53.552;9.910;2022-09-09T01:56:32;4.05;;;2.63;;
21711;SDS011;11017;53.552;9.910;2022-09-09T01:59:05;5.78;;;3.45;;
21711;SDS011;11017;53.552;9.910;2022-09-09T02:01:39;4.50;;;2.78;;
21711;SDS011;11017;53.552;9.910;2022-09-09T02:04:12;6.53;;;2.70;;
21711;SDS011;11017;53.552;9.910;2022-09-09T02:06:44;2.85;;;2.65;;
21711;SDS011;11017;53.552;9.910;2022-09-09T02:09:12;4.88;;;2.83;;
21711;SDS011;11017;53.552;9.910;2022-09-09T02:11:39;8.68;;;2.63;;
21711;SDS011;11017;53.552;9.910;2022-09-09T02:14:08;4.97;;;2.67;;
21711;SDS011;11017;53.552;9.910;2022-09-09T02:16:39;4.22;;;2.28;;
21711;SDS011;11017;53.552;9.910;2022-09-09T02:19:08;2.38;;;1.92;;
21711;SDS011;11017;53.552;9.910;2022-09-09T02:21:37;4.00;;;3.40;;
21711;SDS011;11017;53.552;9.910;2022-09-09T02:24:06;3.55;;;2.45;;
21711;SDS011;11017;53.552;9.910;2022-09-09T02:26:35;2.80;;;1.90;;
21711;SDS011;11017;53.552;9.910;2022-09-09T02:29:04;11.02;;;4.00;;
21711;SDS011;11017;53.552;9.910;2022-09-09T02:31:33;4.15;;;2.90;;
21711;SDS011;11017;53.552;9.910;2022-09-09T02:34:03;10.07;;;3.70;;
21711;SDS011;11017;53.552;9.910;2022-09-09T02:36:30;3.47;;;2.63;;
21711;SDS011;11017;53.552;9.910;2022-09-09T02:38:59;3.78;;;2.08;;
21711;SDS011;11017;53.552;9.910;2022-09-09T02:41:28;8.85;;;2.92;;
21711;SDS011;11017;53.552;9.910;2022-09-09T02:43:57;2.40;;;1.95;;
21711;SDS011;11017;53.552;9.910;2022-09-09T02:46:28;4.10;;;2.42;;
21711;SDS011;11017;53.552;9.910;2022-09-09T02:48:59;5.50;;;3.13;;
21711;SDS011;11017;53.552;9.910;2022-09-09T02:51:29;2.75;;;2.40;;
21711;SDS011;11017;53.552;9.910;2022-09-09T02:53:59;2.15;;;1.98;;
21711;SDS011;11017;53.552;9.910;2022-09-09T02:56:31;5.15;;;2.42;;
21711;SDS011;11017;53.552;9.910;2022-09-09T02:59:02;21.02;;;3.63;;
21711;SDS011;11017;53.552;9.910;2022-09-09T03:01:30;2.60;;;2.35;;
21711;SDS011;11017;53.552;9.910;2022-09-09T03:03:57;3.08;;;2.70;;
21711;SDS011;11017;53.552;9.910;2022-09-09T03:06:24;2.25;;;1.83;;
21711;SDS011;11017;53.552;9.910;2022-09-09T03:08:53;1.90;;;1.77;;
21711;SDS011;11017;53.552;9.910;2022-09-09T03:11:21;2.35;;;1.90;;
21711;SDS011;11017;53.552;9.910;2022-09-09T03:13:48;1.42;;;1.33;;
21711;SDS011;11017;53.552;9.910;2022-09-09T03:16:15;4.63;;;2.15;;
21711;SDS011;11017;53.552;9.910;2022-09-09T03:18:42;2.42;;;1.92;;
21711;SDS011;11017;53.552;9.910;2022-09-09T03:21:11;3.38;;;2.08;;
21711;SDS011;11017;53.552;9.910;2022-09-09T03:23:38;2.55;;;1.90;;
21711;SDS011;11017;53.552;9.910;2022-09-09T03:26:07;3.70;;;2.17;;
21711;SDS011;11017;53.552;9.910;2022-09-09T03:28:34;3.80;;;2.13;;
21711;SDS011;11017;53.552;9.910;2022-09-09T03:31:01;3.38;;;2.47;;
21711;SDS011;11017;53.552;9.910;2022-09-09T03:33:29;2.88;;;2.28;;
21711;SDS011;11017;53.552;9.910;2022-09-09T03:35:56;3.13;;;2.47;;
21711;SDS011;11017;53.552;9.910;2022-09-09T03:38:23;2.38;;;2.17;;
21711;SDS011;11017;53.552;9.910;2022-09-09T03:40:51;5.28;;;2.28;;
21711;SDS011;11017;53.552;9.910;2022-09-09T03:43:21;2.15;;;1.58;;
21711;SDS011;11017;53.552;9.910;2022-09-09T03:45:49;3.08;;;1.92;;
21711;SDS011;11017;53.552;9.910;2022-09-09T03:48:16;3.88;;;1.70;;
21711;SDS011;11017;53.552;9.910;2022-09-09T03:50:44;1.52;;;1.42;;
21711;SDS011;11017;53.552;9.910;2022-09-09T03:53:11;3.00;;;1.67;;
21711;SDS011;11017;53.552;9.910;2022-09-09T03:55:38;8.85;;;1.85;;
21711;SDS011;11017;53.552;9.910;2022-09-09T03:58:06;1.50;;;1.40;;
21711;SDS011;11017;53.552;9.910;2022-09-09T04:00:35;1.98;;;1.83;;
21711;SDS011;11017;53.552;9.910;2022-09-09T04:03:06;1.42;;;0.85;;
21711;SDS011;11017;53.552;9.910;2022-09-09T04:05:33;2.80;;;1.50;;
21711;SDS011;11017;53.552;9.910;2022-09-09T04:08:00;2.70;;;2.00;;
21711;SDS011;11017;53.552;9.910;2022-09-09T04:10:27;3.03;;;1.92;;
21711;SDS011;11017;53.552;9.910;2022-09-09T04:12:54;6.25;;;2.00;;
21711;SDS011;11017;53.552;9.910;2022-09-09T04:15:22;2.70;;;2.47;;
21711;SDS011;11017;53.552;9.910;2022-09-09T04:17:50;2.63;;;2.35;;
21711;SDS011;11017;53.552;9.910;2022-09-09T04:20:17;1.77;;;1.67;;
21711;SDS011;11017;53.552;9.910;2022-09-09T04:22:44;2.33;;;1.95;;
21711;SDS011;11017;53.552;9.910;2022-09-09T04:25:11;1.95;;;0.73;;
21711;SDS011;11017;53.552;9.910;2022-09-09T04:27:38;2.53;;;1.88;;
21711;SDS011;11017;53.552;9.910;2022-09-09T04:30:06;3.15;;;1.95;;
21711;SDS011;11017;53.552;9.910;2022-09-09T04:32:33;6.00;;;2.38;;
21711;SDS011;11017;53.552;9.910;2022-09-09T04:35:03;11.60;;;2.33;;
21711;SDS011;11017;53.552;9.910;2022-09-09T04:37:30;3.75;;;2.20;;
21711;SDS011;11017;53.552;9.910;2022-09-09T04:39:57;3.00;;;1.98;;
21711;SDS011;11017;53.552;9.910;2022-09-09T04:42:27;3.08;;;1.95;;
21711;SDS011;11017;53.552;9.910;2022-09-09T04:44:54;1.85;;;1.52;;
21711;SDS011;11017;53.552;9.910;2022-09-09T04:47:21;4.95;;;3.42;;
21711;SDS011;11017;53.552;9.910;2022-09-09T04:49:48;2.22;;;2.03;;
21711;SDS011;11017;53.552;9.910;2022-09-09T04:52:16;2.10;;;1.23;;
21711;SDS011;11017;53.552;9.910;2022-09-09T04:54:43;3.78;;;2.20;;
21711;SDS011;11017;53.552;9.910;2022-09-09T04:57:11;3.38;;;1.67;;
21711;SDS011;11017;53.552;9.910;2022-09-09T04:59:38;1.40;;;1.30;;
21711;SDS011;11017;53.552;9.910;2022-09-09T05:02:05;1.92;;;1.27;;
21711;SDS011;11017;53.552;9.910;2022-09-09T05:04:32;0.90;;;0.82;;
21711;SDS011;11017;53.552;9.910;2022-09-09T05:06:59;4.07;;;2.35;;
21711;SDS011;11017;53.552;9.910;2022-09-09T05:09:28;3.80;;;2.40;;
21711;SDS011;11017;53.552;9.910;2022-09-09T05:11:55;4.28;;;3.45;;
21711;SDS011;11017;53.552;9.910;2022-09-09T05:14:23;2.40;;;1.70;;
21711;SDS011;11017;53.552;9.910;2022-09-09T05:16:50;3.85;;;2.60;;
21711;SDS011;11017;53.552;9.910;2022-09-09T05:19:17;2.72;;;1.50;;
21711;SDS011;11017;53.552;9.910;2022-09-09T05:21:45;4.45;;;2.10;;
21711;SDS011;11017;53.552;9.910;2022-09-09T05:24:12;3.45;;;2.03;;
21711;SDS011;11017;53.552;9.910;2022-09-09T05:26:40;4.13;;;2.55;;
21711;SDS011;11017;53.552;9.910;2022-09-09T05:29:08;2.58;;;1.27;;
21711;SDS011;11017;53.552;9.910;2022-09-09T05:31:35;2.17;;;1.20;;
21711;SDS011;11017;53.552;9.910;2022-09-09T05:34:03;1.45;;;1.35;;
21711;SDS011;11017;53.552;9.910;2022-09-09T05:36:31;3.67;;;1.42;;
21711;SDS011;11017;53.552;9.910;2022-09-09T05:38:58;2.65;;;1.40;;
21711;SDS011;11017;53.552;9.910;2022-09-09T05:41:26;3.15;;;1.85;;
21711;SDS011;11017;53.552;9.910;2022-09-09T05:43:55;1.80;;;0.80;;
21711;SDS011;11017;53.552;9.910;2022-09-09T05:46:24;2.42;;;1.15;;
21711;SDS011;11017;53.552;9.910;2022-09-09T05:48:51;1.60;;;0.75;;
21711;SDS011;11017;53.552;9.910;2022-09-09T05:51:19;4.80;;;1.73;;
21711;SDS011;11017;53.552;9.910;2022-09-09T05:53:47;1.23;;;1.13;;
21711;SDS011;11017;53.552;9.910;2022-09-09T05:56:14;44.90;;;1.67;;
21711;SDS011;11017;53.552;9.910;2022-09-09T05:58:42;4.13;;;1.48;;
21711;SDS011;11017;53.552;9.910;2022-09-09T06:01:12;2.65;;;1.48;;
21711;SDS011;11017;53.552;9.910;2022-09-09T06:03:40;1.55;;;1.35;;
21711;SDS011;11017;53.552;9.910;2022-09-09T06:06:08;2.13;;;1.75;;
21711;SDS011;11017;53.552;9.910;2022-09-09T06:08:37;0.88;;;0.77;;
21711;SDS011;11017;53.552;9.910;2022-09-09T06:11:05;0.80;;;0.80;;
21711;SDS011;11017;53.552;9.910;2022-09-09T06:13:32;1.48;;;1.27;;
21711;SDS011;11017;53.552;9.910;2022-09-09T06:16:00;0.60;;;0.60;;
21711;SDS011;11017;53.552;9.910;2022-09-09T06:18:28;1.90;;;1.08;;
21711;SDS011;11017;53.552;9.910;2022-09-09T06:20:56;0.82;;;0.82;;
21711;SDS011;11017;53.552;9.910;2022-09-09T06:23:24;1.65;;;1.55;;
21711;SDS011;11017;53.552;9.910;2022-09-09T06:25:51;0.63;;;0.63;;
21711;SDS011;11017;53.552;9.910;2022-09-09T06:28:18;0.50;;;0.50;;
21711;SDS011;11017;53.552;9.910;2022-09-09T06:30:45;0.47;;;0.47;;
21711;SDS011;11017;53.552;9.910;2022-09-09T06:33:12;1.35;;;1.20;;
21711;SDS011;11017;53.552;9.910;2022-09-09T06:35:41;1.58;;;0.70;;
21711;SDS011;11017;53.552;9.910;2022-09-09T06:38:09;0.30;;;0.30;;
21711;SDS011;11017;53.552;9.910;2022-09-09T06:40:37;0.20;;;0.20;;
21711;SDS011;11017;53.552;9.910;2022-09-09T06:43:04;0.63;;;0.63;;
21711;SDS011;11017;53.552;9.910;2022-09-09T06:45:31;0.20;;;0.20;;
21711;SDS011;11017;53.552;9.910;2022-09-09T06:48:01;0.73;;;0.73;;
21711;SDS011;11017;53.552;9.910;2022-09-09T06:50:29;1.15;;;0.73;;
21711;SDS011;11017;53.552;9.910;2022-09-09T06:52:57;0.28;;;0.28;;
21711;SDS011;11017;53.552;9.910;2022-09-09T06:55:24;0.82;;;0.50;;
21711;SDS011;11017;53.552;9.910;2022-09-09T06:57:51;0.52;;;0.28;;
21711;SDS011;11017;53.552;9.910;2022-09-09T07:00:18;0.22;;;0.22;;
21711;SDS011;11017;53.552;9.910;2022-09-09T07:02:45;0.75;;;0.57;;
21711;SDS011;11017;53.552;9.910;2022-09-09T07:05:13;6.07;;;1.23;;
21711;SDS011;11017;53.552;9.910;2022-09-09T07:07:40;2.70;;;0.95;;
21711;SDS011;11017;53.552;9.910;2022-09-09T07:10:09;0.55;;;0.55;;
21711;SDS011;11017;53.552;9.910;2022-09-09T07:12:36;0.63;;;0.63;;
21711;SDS011;11017;53.552;9.910;2022-09-09T07:15:04;0.35;;;0.35;;
21711;SDS011;11017;53.552;9.910;2022-09-09T07:17:31;1.88;;;0.75;;
21711;SDS011;11017;53.552;9.910;2022-09-09T07:20:02;0.30;;;0.30;;
21711;SDS011;11017;53.552;9.910;2022-09-09T07:22:30;0.28;;;0.22;;
21711;SDS011;11017;53.552;9.910;2022-09-09T07:24:59;0.40;;;0.32;;
21711;SDS011;11017;53.552;9.910;2022-09-09T07:27:32;1.45;;;0.30;;
21711;SDS011;11017;53.552;9.910;2022-09-09T07:30:01;0.35;;;0.30;;
21711;SDS011;11017;53.552;9.910;2022-09-09T07:32:30;0.85;;;0.38;;
21711;SDS011;11017;53.552;9.910;2022-09-09T07:35:00;0.43;;;0.30;;
21711;SDS011;11017;53.552;9.910;2022-09-09T07:37:28;0.38;;;0.38;;
21711;SDS011;11017;53.552;9.910;2022-09-09T07:39:57;0.65;;;0.40;;
21711;SDS011;11017;53.552;9.910;2022-09-09T07:42:26;0.10;;;0.10;;
21711;SDS011;11017;53.552;9.910;2022-09-09T07:44:54;1.95;;;0.57;;
21711;SDS011;11017;53.552;9.910;2022-09-09T07:47:21;1.25;;;0.82;;
21711;SDS011;11017;53.552;9.910;2022-09-09T07:49:50;0.20;;;0.20;;
21711;SDS011;11017;53.552;9.910;2022-09-09T07:52:17;0.30;;;0.30;;
21711;SDS011;11017;53.552;9.910;2022-09-09T07:54:45;0.43;;;0.43;;
21711;SDS011;11017;53.552;9.910;2022-09-09T07:57:12;11.65;;;1.58;;
21711;SDS011;11017;53.552;9.910;2022-09-09T07:59:40;0.50;;;0.50;;
21711;SDS011;11017;53.552;9.910;2022-09-09T08:02:09;0.65;;;0.50;;
21711;SDS011;11017;53.552;9.910;2022-09-09T08:04:36;0.17;;;0.17;;
21711;SDS011;11017;53.552;9.910;2022-09-09T08:07:03;0.10;;;0.10;;
21711;SDS011;11017;53.552;9.910;2022-09-09T08:09:31;0.10;;;0.10;;
21711;SDS011;11017;53.552;9.910;2022-09-09T08:11:58;0.20;;;0.20;;
21711;SDS011;11017;53.552;9.910;2022-09-09T08:14:26;0.68;;;0.40;;
21711;SDS011;11017;53.552;9.910;2022-09-09T08:16:57;0.60;;;0.30;;
21711;SDS011;11017;53.552;9.910;2022-09-09T08:19:26;1.02;;;0.32;;
21711;SDS011;11017;53.552;9.910;2022-09-09T08:21:54;0.35;;;0.30;;
21711;SDS011;11017;53.552;9.910;2022-09-09T08:24:21;0.20;;;0.20;;
21711;SDS011;11017;53.552;9.910;2022-09-09T08:26:48;0.10;;;0.10;;
21711;SDS011;11017;53.552;9.910;2022-09-09T08:29:16;0.20;;;0.20;;
21711;SDS011;11017;53.552;9.910;2022-09-09T08:31:44;0.30;;;0.22;;
21711;SDS011;11017;53.552;9.910;2022-09-09T08:34:12;0.10;;;0.10;;
21711;SDS011;11017;53.552;9.910;2022-09-09T08:36:42;0.28;;;0.28;;
21711;SDS011;11017;53.552;9.910;2022-09-09T08:39:09;0.10;;;0.10;;
21711;SDS011;11017;53.552;9.910;2022-09-09T08:41:39;0.20;;;0.20;;
21711;SDS011;11017;53.552;9.910;2022-09-09T08:44:10;0.30;;;0.30;;
21711;SDS011;11017;53.552;9.910;2022-09-09T08:46:42;2.25;;;0.95;;
21711;SDS011;11017;53.552;9.910;2022-09-09T08:49:19;0.32;;;0.20;;
21711;SDS011;11017;53.552;9.910;2022-09-09T08:51:52;1.85;;;0.35;;
21711;SDS011;11017;53.552;9.910;2022-09-09T08:54:21;0.43;;;0.43;;
21711;SDS011;11017;53.552;9.910;2022-09-09T08:56:48;0.22;;;0.22;;
21711;SDS011;11017;53.552;9.910;2022-09-09T08:59:16;0.10;;;0.10;;
21711;SDS011;11017;53.552;9.910;2022-09-09T09:01:50;0.30;;;0.30;;
21711;SDS011;11017;53.552;9.910;2022-09-09T09:04:27;0.13;;;0.13;;
21711;SDS011;11017;53.552;9.910;2022-09-09T09:07:00;0.00;;;0.00;;
21711;SDS011;11017;53.552;9.910;2022-09-09T09:09:30;0.30;;;0.10;;
21711;SDS011;11017;53.552;9.910;2022-09-09T09:12:00;0.00;;;0.00;;
21711;SDS011;11017;53.552;9.910;2022-09-09T09:14:28;0.40;;;0.30;;
21711;SDS011;11017;53.552;9.910;2022-09-09T09:16:59;0.10;;;0.10;;
21711;SDS011;11017;53.552;9.910;2022-09-09T09:19:28;0.10;;;0.10;;
21711;SDS011;11017;53.552;9.910;2022-09-09T09:22:00;0.10;;;0.10;;
21711;SDS011;11017;53.552;9.910;2022-09-09T09:24:31;0.20;;;0.20;;
21711;SDS011;11017;53.552;9.910;2022-09-09T09:27:07;0.10;;;0.10;;
21711;SDS011;11017;53.552;9.910;2022-09-09T09:29:37;0.32;;;0.30;;
21711;SDS011;11017;53.552;9.910;2022-09-09T09:32:05;1.65;;;0.55;;
21711;SDS011;11017;53.552;9.910;2022-09-09T09:34:34;0.10;;;0.10;;
21711;SDS011;11017;53.552;9.910;2022-09-09T09:37:07;0.10;;;0.10;;
21711;SDS011;11017;53.552;9.910;2022-09-09T09:39:39;0.10;;;0.10;;
21711;SDS011;11017;53.552;9.910;2022-09-09T09:42:07;0.10;;;0.10;;
21711;SDS011;11017;53.552;9.910;2022-09-09T09:44:39;0.30;;;0.10;;
21711;SDS011;11017;53.552;9.910;2022-09-09T09:47:07;0.10;;;0.10;;
21711;SDS011;11017;53.552;9.910;2022-09-09T09:49:34;0.10;;;0.10;;
21711;SDS011;11017;53.552;9.910;2022-09-09T09:54:49;0.08;;;0.08;;
21711;SDS011;11017;53.552;9.910;2022-09-09T09:57:16;0.20;;;0.15;;
21711;SDS011;11017;53.552;9.910;2022-09-09T09:59:44;0.00;;;0.00;;
21711;SDS011;11017;53.552;9.910;2022-09-09T10:02:13;0.20;;;0.15;;
21711;SDS011;11017;53.552;9.910;2022-09-09T10:04:41;0.55;;;0.20;;
21711;SDS011;11017;53.552;9.910;2022-09-09T10:07:11;0.10;;;0.10;;
21711;SDS011;11017;53.552;9.910;2022-09-09T10:09:38;0.05;;;0.05;;
21711;SDS011;11017;53.552;9.910;2022-09-09T10:12:08;0.13;;;0.13;;
21711;SDS011;11017;53.552;9.910;2022-09-09T10:14:37;0.10;;;0.10;;
21711;SDS011;11017;53.552;9.910;2022-09-09T10:17:13;0.10;;;0.10;;
21711;SDS011;11017;53.552;9.910;2022-09-09T10:19:45;0.10;;;0.10;;
21711;SDS011;11017;53.552;9.910;2022-09-09T10:22:20;0.17;;;0.13;;
21711;SDS011;11017;53.552;9.910;2022-09-09T10:25:02;0.10;;;0.10;;
21711;SDS011;11017;53.552;9.910;2022-09-09T10:27:36;0.20;;;0.20;;
21711;SDS011;11017;53.552;9.910;2022-09-09T10:30:09;0.10;;;0.10;;
21711;SDS011;11017;53.552;9.910;2022-09-09T10:32:40;0.00;;;0.00;;
21711;SDS011;11017;53.552;9.910;2022-09-09T10:40:37;0.20;;;0.20;;
21711;SDS011;11017;53.552;9.910;2022-09-09T10:43:12;3.95;;;0.63;;
21711;SDS011;11017;53.552;9.910;2022-09-09T10:45:43;0.08;;;0.08;;
21711;SDS011;11017;53.552;9.910;2022-09-09T10:48:14;0.52;;;0.22;;
21711;SDS011;11017;53.552;9.910;2022-09-09T10:50:48;0.00;;;0.00;;
21711;SDS011;11017;53.552;9.910;2022-09-09T10:53:18;0.10;;;0.10;;
21711;SDS011;11017;53.552;9.910;2022-09-09T10:55:50;0.63;;;0.17;;
21711;SDS011;11017;53.552;9.910;2022-09-09T10:58:20;3.47;;;0.30;;
21711;SDS011;11017;53.552;9.910;2022-09-09T11:00:51;1.85;;;0.10;;
21711;SDS011;11017;53.552;9.910;2022-09-09T11:03:21;0.10;;;0.10;;
21711;SDS011;11017;53.552;9.910;2022-09-09T11:05:51;0.10;;;0.10;;
21711;SDS011;11017;53.552;9.910;2022-09-09T11:08:20;0.00;;;0.00;;
21711;SDS011;11017;53.552;9.910;2022-09-09T11:10:48;0.00;;;0.00;;
21711;SDS011;11017;53.552;9.910;2022-09-09T11:13:22;0.00;;;0.00;;
21711;SDS011;11017;53.552;9.910;2022-09-09T11:15:52;4.60;;;0.20;;
21711;SDS011;11017;53.552;9.910;2022-09-09T11:18:22;0.52;;;0.45;;
21711;SDS011;11017;53.552;9.910;2022-09-09T11:20:51;0.38;;;0.30;;
21711;SDS011;11017;53.552;9.910;2022-09-09T11:23:20;0.13;;;0.13;;
21711;SDS011;11017;53.552;9.910;2022-09-09T11:25:50;0.03;;;0.03;;
21711;SDS011;11017;53.552;9.910;2022-09-09T11:28:26;0.00;;;0.00;;
21711;SDS011;11017;53.552;9.910;2022-09-09T11:30:59;0.30;;;0.30;;
21711;SDS011;11017;53.552;9.910;2022-09-09T11:33:34;0.10;;;0.10;;
21711;SDS011;11017;53.552;9.910;2022-09-09T11:36:11;0.20;;;0.20;;
21711;SDS011;11017;53.552;9.910;2022-09-09T11:38:44;0.10;;;0.10;;
21711;SDS011;11017;53.552;9.910;2022-09-09T11:41:12;0.32;;;0.20;;
21711;SDS011;11017;53.552;9.910;2022-09-09T11:43:41;0.13;;;0.13;;
21711;SDS011;11017;53.552;9.910;2022-09-09T11:46:09;0.00;;;0.00;;
21711;SDS011;11017;53.552;9.910;2022-09-09T11:48:37;0.30;;;0.28;;
21711;SDS011;11017;53.552;9.910;2022-09-09T11:51:09;0.20;;;0.20;;
21711;SDS011;11017;53.552;9.910;2022-09-09T11:53:47;0.10;;;0.10;;
21711;SDS011;11017;53.552;9.910;2022-09-09T11:56:22;0.00;;;0.00;;
21711;SDS011;11017;53.552;9.910;2022-09-09T11:58:55;0.10;;;0.10;;
21711;SDS011;11017;53.552;9.910;2022-09-09T12:01:27;0.10;;;0.10;;
21711;SDS011;11017;53.552;9.910;2022-09-09T12:03:59;0.10;;;0.10;;
21711;SDS011;11017;53.552;9.910;2022-09-09T12:06:28;0.40;;;0.30;;
21711;SDS011;11017;53.552;9.910;2022-09-09T12:08:57;0.40;;;0.40;;
21711;SDS011;11017;53.552;9.910;2022-09-09T12:11:31;0.22;;;0.22;;
21711;SDS011;11017;53.552;9.910;2022-09-09T12:13:59;0.10;;;0.10;;
21711;SDS011;11017;53.552;9.910;2022-09-09T12:16:28;0.15;;;0.15;;
21711;SDS011;11017;53.552;9.910;2022-09-09T12:19:03;0.17;;;0.17;;
21711;SDS011;11017;53.552;9.910;2022-09-09T12:21:32;0.20;;;0.20;;
21711;SDS011;11017;53.552;9.910;2022-09-09T12:24:02;0.30;;;0.30;;
21711;SDS011;11017;53.552;9.910;2022-09-09T12:26:32;0.30;;;0.30;;
21711;SDS011;11017;53.552;9.910;2022-09-09T12:29:04;0.28;;;0.28;;
21711;SDS011;11017;53.552;9.910;2022-09-09T12:31:34;0.82;;;0.50;;
21711;SDS011;11017;53.552;9.910;2022-09-09T12:34:08;0.15;;;0.15;;
21711;SDS011;11017;53.552;9.910;2022-09-09T12:36:37;0.20;;;0.15;;
21711;SDS011;11017;53.552;9.910;2022-09-09T12:39:09;0.73;;;0.30;;
21711;SDS011;11017;53.552;9.910;2022-09-09T12:41:37;0.65;;;0.45;;
21711;SDS011;11017;53.552;9.910;2022-09-09T12:44:05;4.57;;;0.50;;
21711;SDS011;11017;53.552;9.910;2022-09-09T12:46:34;0.22;;;0.22;;
21711;SDS011;11017;53.552;9.910;2022-09-09T12:49:02;0.63;;;0.63;;
21711;SDS011;11017;53.552;9.910;2022-09-09T12:51:32;0.40;;;0.40;;
21711;SDS011;11017;53.552;9.910;2022-09-09T12:54:00;0.30;;;0.30;;
21711;SDS011;11017;53.552;9.910;2022-09-09T12:56:28;0.22;;;0.20;;
21711;SDS011;11017;53.552;9.910;2022-09-09T12:58:57;0.38;;;0.32;;
21711;SDS011;11017;53.552;9.910;2022-09-09T13:01:27;0.35;;;0.35;;
21711;SDS011;11017;53.552;9.910;2022-09-09T13:03:55;0.25;;;0.22;;
21711;SDS011;11017;53.552;9.910;2022-09-09T13:06:26;0.30;;;0.30;;
21711;SDS011;11017;53.552;9.910;2022-09-09T13:08:54;1.27;;;0.45;;
21711;SDS011;11017;53.552;9.910;2022-09-09T13:11:24;0.22;;;0.22;;
21711;SDS011;11017;53.552;9.910;2022-09-09T13:13:54;0.77;;;0.50;;
21711;SDS011;11017;53.552;9.910;2022-09-09T13:16:22;0.47;;;0.40;;
21711;SDS011;11017;53.552;9.910;2022-09-09T13:18:51;0.25;;;0.10;;
21711;SDS011;11017;53.552;9.910;2022-09-09T13:21:18;0.20;;;0.20;;
21711;SDS011;11017;53.552;9.910;2022-09-09T13:23:48;0.10;;;0.10;;
21711;SDS011;11017;53.552;9.910;2022-09-09T13:26:21;2.25;;;0.75;;
21711;SDS011;11017;53.552;9.910;2022-09-09T13:28:48;0.38;;;0.20;;
21711;SDS011;11017;53.552;9.910;2022-09-09T13:31:19;0.17;;;0.17;;
21711;SDS011;11017;53.552;9.910;2022-09-09T13:33:47;0.25;;;0.25;;
21711;SDS011;11017;53.552;9.910;2022-09-09T13:36:16;0.32;;;0.32;;
21711;SDS011;11017;53.552;9.910;2022-09-09T13:38:52;0.47;;;0.40;;
21711;SDS011;11017;53.552;9.910;2022-09-09T13:41:20;0.10;;;0.10;;
21711;SDS011;11017;53.552;9.910;2022-09-09T13:43:48;0.10;;;0.10;;
21711;SDS011;11017;53.552;9.910;2022-09-09T13:46:24;0.10;;;0.10;;
21711;SDS011;11017;53.552;9.910;2022-09-09T13:48:55;0.30;;;0.30;;
21711;SDS011;11017;53.552;9.910;2022-09-09T13:51:28;1.08;;;0.65;;
21711;SDS011;11017;53.552;9.910;2022-09-09T13:53:56;0.32;;;0.32;;
21711;SDS011;11017;53.552;9.910;2022-09-09T13:56:25;0.90;;;0.43;;
21711;SDS011;11017;53.552;9.910;2022-09-09T13:58:52;5.57;;;0.65;;
21711;SDS011;11017;53.552;9.910;2022-09-09T14:01:19;0.82;;;0.40;;
21711;SDS011;11017;53.552;9.910;2022-09-09T14:03:46;0.00;;;0.00;;
21711;SDS011;11017;53.552;9.910;2022-09-09T14:06:13;0.20;;;0.20;;
21711;SDS011;11017;53.552;9.910;2022-09-09T14:08:42;0.28;;;0.28;;
21711;SDS011;11017;53.552;9.910;2022-09-09T14:11:11;0.30;;;0.30;;
21711;SDS011;11017;53.552;9.910;2022-09-09T14:13:39;0.10;;;0.10;;
21711;SDS011;11017;53.552;9.910;2022-09-09T14:16:06;1.73;;;1.02;;
21711;SDS011;11017;53.552;9.910;2022-09-09T14:18:34;1.33;;;0.70;;
21711;SDS011;11017;53.552;9.910;2022-09-09T14:21:02;0.20;;;0.20;;
21711;SDS011;11017;53.552;9.910;2022-09-09T14:23:30;0.20;;;0.20;;
21711;SDS011;11017;53.552;9.910;2022-09-09T14:25:58;0.20;;;0.20;;
21711;SDS011;11017;53.552;9.910;2022-09-09T14:28:26;0.10;;;0.10;;
21711;SDS011;11017;53.552;9.910;2022-09-09T14:30:53;0.40;;;0.40;;
21711;SDS011;11017;53.552;9.910;2022-09-09T14:33:20;0.70;;;0.60;;
21711;SDS011;11017;53.552;9.910;2022-09-09T14:35:47;0.38;;;0.38;;
21711;SDS011;11017;53.552;9.910;2022-09-09T14:38:14;0.40;;;0.40;;
21711;SDS011;11017;53.552;9.910;2022-09-09T14:40:44;0.45;;;0.40;;
21711;SDS011;11017;53.552;9.910;2022-09-09T14:43:14;0.88;;;0.35;;
21711;SDS011;11017;53.552;9.910;2022-09-09T14:45:41;0.10;;;0.10;;
21711;SDS011;11017;53.552;9.910;2022-09-09T14:48:08;0.17;;;0.17;;
21711;SDS011;11017;53.552;9.910;2022-09-09T14:50:35;0.20;;;0.20;;
21711;SDS011;11017;53.552;9.910;2022-09-09T14:53:05;0.47;;;0.20;;
21711;SDS011;11017;53.552;9.910;2022-09-09T14:55:32;1.38;;;0.55;;
21711;SDS011;11017;53.552;9.910;2022-09-09T14:57:59;0.20;;;0.20;;
21711;SDS011;11017;53.552;9.910;2022-09-09T15:00:27;0.10;;;0.10;;
21711;SDS011;11017;53.552;9.910;2022-09-09T15:02:54;0.05;;;0.05;;
21711;SDS011;11017;53.552;9.910;2022-09-09T15:05:22;0.20;;;0.20;;
21711;SDS011;11017;53.552;9.910;2022-09-09T15:07:50;0.20;;;0.20;;